sensor_id;sensor_type;location;lat;lon;timestamp;pressure;altitude;pressure_sealevel;temperature;humidity
7660;BME280;3872;47.902;8.162;2022-08-25T00:01:52;92131.63;;;14.20;100.00
7660;BME280;3872;47.902;8.162;2022-08-25T00:04:19;92135.66;;;14.17;100.00
7660;BME280;3872;47.902;8.162;2022-08-25T00:06:46;92130.47;;;14.03;100.00
7660;BME280;3872;47.902;8.162;2022-08-25T00:09:20;92139.97;;;13.96;100.00
7660;BME280;3872;47.902;8.162;2022-08-25T00:11:48;92142.75;;;13.91;100.00
7660;BME280;3872;47.902;8.162;2022-08-25T00:14:16;92138.06;;;13.88;100.00
7660;BME280;3872;47.902;8.162;2022-08-25T00:16:44;92133.72;;;13.92;100.00
7660;BME280;3872;47.902;8.162;2022-08-25T00:19:13;92128.56;;;13.87;100.00
7660;BME280;3872;47.902;8.162;2022-08-25T00:21:41;92126.22;;;13.77;100.00
7660;BME280;3872;47.902;8.162;2022-08-25T00:24:08;92128.69;;;13.73;100.00
7660;BME280;3872;47.902;8.162;2022-08-25T00:26:38;92128.03;;;13.67;100.00
7660;BME280;3872;47.902;8.162;2022-08-25T00:29:05;92135.50;;;13.65;100.00
7660;BME280;3872;47.902;8.162;2022-08-25T00:31:32;92131.09;;;13.52;100.00
7660;BME280;3872;47.902;8.162;2022-08-25T00:34:00;92129.72;;;13.55;100.00
7660;BME280;3872;47.902;8.162;2022-08-25T00:36:27;92141.66;;;13.52;100.00
7660;BME280;3872;47.902;8.162;2022-08-25T00:38:54;92140.94;;;13.29;100.00
7660;BME280;3872;47.902;8.162;2022-08-25T00:41:22;92146.78;;;13.18;100.00
7660;BME280;3872;47.902;8.162;2022-08-25T00:43:51;92136.41;;;13.30;100.00
7660;BME280;3872;47.902;8.162;2022-08-25T00:46:21;92139.41;;;13.37;100.00
7660;BME280;3872;47.902;8.162;2022-08-25T00:48:52;92130.69;;;13.28;100.00
7660;BME280;3872;47.902;8.162;2022-08-25T00:51:28;92130.34;;;13.21;100.00
7660;BME280;3872;47.902;8.162;2022-08-25T00:53:58;92139.63;;;13.18;100.00
7660;BME280;3872;47.902;8.162;2022-08-25T00:56:26;92131.91;;;13.08;100.00
7660;BME280;3872;47.902;8.162;2022-08-25T00:58:54;92133.91;;;13.03;100.00
7660;BME280;3872;47.902;8.162;2022-08-25T01:01:21;92141.66;;;12.99;100.00
7660;BME280;3872;47.902;8.162;2022-08-25T01:03:47;92142.75;;;12.98;100.00
7660;BME280;3872;47.902;8.162;2022-08-25T01:06:14;92136.84;;;13.01;100.00
7660;BME280;3872;47.902;8.162;2022-08-25T01:08:41;92139.63;;;12.96;100.00
7660;BME280;3872;47.902;8.162;2022-08-25T01:11:10;92130.50;;;12.80;100.00
7660;BME280;3872;47.902;8.162;2022-08-25T01:13:40;92136.75;;;12.84;100.00
7660;BME280;3872;47.902;8.162;2022-08-25T01:16:10;92137.53;;;12.84;100.00
7660;BME280;3872;47.902;8.162;2022-08-25T01:18:48;92130.75;;;12.70;100.00
7660;BME280;3872;47.902;8.162;2022-08-25T01:21:19;92141.78;;;12.72;100.00
7660;BME280;3872;47.902;8.162;2022-08-25T01:23:46;92135.06;;;12.66;100.00
7660;BME280;3872;47.902;8.162;2022-08-25T01:26:17;92138.59;;;12.61;100.00
7660;BME280;3872;47.902;8.162;2022-08-25T01:28:45;92139.38;;;12.62;100.00
7660;BME280;3872;47.902;8.162;2022-08-25T01:31:27;92141.38;;;12.56;100.00
7660;BME280;3872;47.902;8.162;2022-08-25T01:33:54;92141.13;;;12.66;100.00
7660;BME280;3872;47.902;8.162;2022-08-25T01:36:25;92136.53;;;12.58;100.00
7660;BME280;3872;47.902;8.162;2022-08-25T01:38:52;92133.91;;;12.58;100.00
7660;BME280;3872;47.902;8.162;2022-08-25T01:41:21;92132.38;;;12.57;100.00
7660;BME280;3872;47.902;8.162;2022-08-25T01:43:51;92127.31;;;12.47;100.00
7660;BME280;3872;47.902;8.162;2022-08-25T01:46:18;92129.28;;;12.41;100.00
7660;BME280;3872;47.902;8.162;2022-08-25T01:48:44;92130.00;;;12.33;100.00
7660;BME280;3872;47.902;8.162;2022-08-25T01:51:13;92128.53;;;12.27;100.00
7660;BME280;3872;47.902;8.162;2022-08-25T01:53:41;92129.13;;;12.24;100.00
7660;BME280;3872;47.902;8.162;2022-08-25T01:56:09;92129.16;;;12.10;100.00
7660;BME280;3872;47.902;8.162;2022-08-25T01:58:39;92130.44;;;12.13;100.00
7660;BME280;3872;47.902;8.162;2022-08-25T02:01:09;92125.06;;;12.04;100.00
7660;BME280;3872;47.902;8.162;2022-08-25T02:03:38;92130.63;;;12.03;100.00
7660;BME280;3872;47.902;8.162;2022-08-25T02:06:05;92123.78;;;12.02;100.00
7660;BME280;3872;47.902;8.162;2022-08-25T02:08:33;92127.03;;;11.99;100.00
7660;BME280;3872;47.902;8.162;2022-08-25T02:11:01;92130.91;;;12.01;100.00
7660;BME280;3872;47.902;8.162;2022-08-25T02:13:27;92130.91;;;12.01;100.00
7660;BME280;3872;47.902;8.162;2022-08-25T02:15:56;92128.22;;;11.93;100.00
7660;BME280;3872;47.902;8.162;2022-08-25T02:18:23;92124.03;;;11.92;100.00
7660;BME280;3872;47.902;8.162;2022-08-25T02:20:50;92123.31;;;12.00;100.00
7660;BME280;3872;47.902;8.162;2022-08-25T02:23:17;92123.13;;;11.83;100.00
7660;BME280;3872;47.902;8.162;2022-08-25T02:25:43;92121.66;;;11.90;100.00
7660;BME280;3872;47.902;8.162;2022-08-25T02:28:12;92115.13;;;11.88;100.00
7660;BME280;3872;47.902;8.162;2022-08-25T02:30:40;92115.22;;;11.69;100.00
7660;BME280;3872;47.902;8.162;2022-08-25T02:33:08;92121.84;;;11.80;100.00
7660;BME280;3872;47.902;8.162;2022-08-25T02:35:34;92114.94;;;11.84;100.00
7660;BME280;3872;47.902;8.162;2022-08-25T02:38:02;92117.84;;;11.69;100.00
7660;BME280;3872;47.902;8.162;2022-08-25T02:40:29;92114.28;;;11.79;100.00
7660;BME280;3872;47.902;8.162;2022-08-25T02:42:55;92105.56;;;11.78;100.00
7660;BME280;3872;47.902;8.162;2022-08-25T02:45:23;92110.25;;;11.81;100.00
7660;BME280;3872;47.902;8.162;2022-08-25T02:47:50;92107.72;;;11.76;100.00
7660;BME280;3872;47.902;8.162;2022-08-25T02:50:17;92097.44;;;11.61;100.00
7660;BME280;3872;47.902;8.162;2022-08-25T02:52:44;92097.84;;;11.54;100.00
7660;BME280;3872;47.902;8.162;2022-08-25T02:55:12;92100.69;;;11.58;100.00
7660;BME280;3872;47.902;8.162;2022-08-25T02:57:39;92098.34;;;11.43;100.00
7660;BME280;3872;47.902;8.162;2022-08-25T03:00:08;92089.75;;;11.51;100.00
7660;BME280;3872;47.902;8.162;2022-08-25T03:02:36;92091.78;;;11.54;100.00
7660;BME280;3872;47.902;8.162;2022-08-25T03:05:03;92087.31;;;11.54;100.00
7660;BME280;3872;47.902;8.162;2022-08-25T03:07:33;92092.69;;;11.35;100.00
7660;BME280;3872;47.902;8.162;2022-08-25T03:10:03;92097.84;;;11.27;100.00
7660;BME280;3872;47.902;8.162;2022-08-25T03:12:30;92099.91;;;11.44;100.00
7660;BME280;3872;47.902;8.162;2022-08-25T03:14:56;92097.63;;;11.37;100.00
7660;BME280;3872;47.902;8.162;2022-08-25T03:17:23;92099.97;;;11.25;100.00
7660;BME280;3872;47.902;8.162;2022-08-25T03:19:51;92101.25;;;11.27;100.00
7660;BME280;3872;47.902;8.162;2022-08-25T03:22:17;92102.09;;;11.09;100.00
7660;BME280;3872;47.902;8.162;2022-08-25T03:24:45;92105.63;;;11.18;100.00
7660;BME280;3872;47.902;8.162;2022-08-25T03:27:12;92108.66;;;11.12;100.00
7660;BME280;3872;47.902;8.162;2022-08-25T03:29:38;92108.88;;;11.15;100.00
7660;BME280;3872;47.902;8.162;2022-08-25T03:32:05;92100.47;;;11.13;100.00
7660;BME280;3872;47.902;8.162;2022-08-25T03:34:32;92100.19;;;11.15;100.00
7660;BME280;3872;47.902;8.162;2022-08-25T03:37:00;92103.59;;;11.15;100.00
7660;BME280;3872;47.902;8.162;2022-08-25T03:39:26;92107.38;;;11.09;100.00
7660;BME280;3872;47.902;8.162;2022-08-25T03:41:53;92104.25;;;11.07;100.00
7660;BME280;3872;47.902;8.162;2022-08-25T03:44:20;92097.31;;;10.97;100.00
7660;BME280;3872;47.902;8.162;2022-08-25T03:46:49;92097.88;;;10.94;100.00
7660;BME280;3872;47.902;8.162;2022-08-25T03:49:19;92092.31;;;10.96;100.00
7660;BME280;3872;47.902;8.162;2022-08-25T03:51:48;92100.78;;;10.79;100.00
7660;BME280;3872;47.902;8.162;2022-08-25T03:54:19;92101.28;;;10.95;100.00
7660;BME280;3872;47.902;8.162;2022-08-25T03:56:46;92104.72;;;10.95;100.00
7660;BME280;3872;47.902;8.162;2022-08-25T03:59:13;92101.78;;;10.97;100.00
7660;BME280;3872;47.902;8.162;2022-08-25T04:01:42;92099.44;;;10.95;100.00
7660;BME280;3872;47.902;8.162;2022-08-25T04:04:10;92090.09;;;11.03;100.00
7660;BME280;3872;47.902;8.162;2022-08-25T04:06:37;92093.41;;;10.95;100.00
7660;BME280;3872;47.902;8.162;2022-08-25T04:09:04;92089.38;;;10.84;100.00
7660;BME280;3872;47.902;8.162;2022-08-25T04:11:32;92084.75;;;10.62;100.00
7660;BME280;3872;47.902;8.162;2022-08-25T04:14:00;92090.66;;;10.54;100.00
7660;BME280;3872;47.902;8.162;2022-08-25T04:16:28;92087.06;;;10.50;100.00
7660;BME280;3872;47.902;8.162;2022-08-25T04:18:56;92090.34;;;10.42;100.00
7660;BME280;3872;47.902;8.162;2022-08-25T04:21:25;92085.63;;;10.39;100.00
7660;BME280;3872;47.902;8.162;2022-08-25T04:23:53;92090.84;;;10.44;100.00
7660;BME280;3872;47.902;8.162;2022-08-25T04:26:22;92097.16;;;10.43;100.00
7660;BME280;3872;47.902;8.162;2022-08-25T04:28:51;92093.09;;;10.50;100.00
7660;BME280;3872;47.902;8.162;2022-08-25T04:31:20;92099.75;;;10.62;100.00
7660;BME280;3872;47.902;8.162;2022-08-25T04:33:47;92102.19;;;10.58;100.00
7660;BME280;3872;47.902;8.162;2022-08-25T04:36:15;92098.28;;;10.55;100.00
7660;BME280;3872;47.902;8.162;2022-08-25T04:38:43;92098.38;;;10.50;100.00
7660;BME280;3872;47.902;8.162;2022-08-25T04:41:11;92095.72;;;10.50;100.00
7660;BME280;3872;47.902;8.162;2022-08-25T04:43:39;92098.00;;;10.38;100.00
7660;BME280;3872;47.902;8.162;2022-08-25T04:46:11;92105.47;;;10.31;100.00
7660;BME280;3872;47.902;8.162;2022-08-25T04:48:37;92096.16;;;10.39;100.00
7660;BME280;3872;47.902;8.162;2022-08-25T04:51:04;92099.94;;;10.51;100.00
7660;BME280;3872;47.902;8.162;2022-08-25T04:53:32;92103.38;;;10.66;100.00
7660;BME280;3872;47.902;8.162;2022-08-25T04:55:59;92095.50;;;10.66;100.00
7660;BME280;3872;47.902;8.162;2022-08-25T04:58:26;92097.22;;;10.56;100.00
7660;BME280;3872;47.902;8.162;2022-08-25T05:01:00;92089.59;;;10.55;100.00
7660;BME280;3872;47.902;8.162;2022-08-25T05:03:28;92091.72;;;10.53;100.00
7660;BME280;3872;47.902;8.162;2022-08-25T05:05:55;92093.28;;;10.54;100.00
7660;BME280;3872;47.902;8.162;2022-08-25T05:08:22;92080.63;;;10.56;100.00
7660;BME280;3872;47.902;8.162;2022-08-25T05:10:49;92084.63;;;10.53;100.00
7660;BME280;3872;47.902;8.162;2022-08-25T05:13:18;92087.75;;;10.55;100.00
7660;BME280;3872;47.902;8.162;2022-08-25T05:15:50;92086.88;;;10.60;100.00
7660;BME280;3872;47.902;8.162;2022-08-25T05:18:18;92078.78;;;10.56;100.00
7660;BME280;3872;47.902;8.162;2022-08-25T05:20:47;92086.41;;;10.58;100.00
7660;BME280;3872;47.902;8.162;2022-08-25T05:23:13;92083.28;;;10.56;100.00
7660;BME280;3872;47.902;8.162;2022-08-25T05:25:40;92081.94;;;10.58;100.00
7660;BME280;3872;47.902;8.162;2022-08-25T05:28:09;92077.78;;;10.52;100.00
7660;BME280;3872;47.902;8.162;2022-08-25T05:30:37;92080.84;;;10.59;100.00
7660;BME280;3872;47.902;8.162;2022-08-25T05:33:04;92077.91;;;10.61;100.00
7660;BME280;3872;47.902;8.162;2022-08-25T05:35:30;92081.16;;;10.58;100.00
7660;BME280;3872;47.902;8.162;2022-08-25T05:37:58;92080.03;;;10.59;100.00
7660;BME280;3872;47.902;8.162;2022-08-25T05:40:25;92075.63;;;10.41;100.00
7660;BME280;3872;47.902;8.162;2022-08-25T05:42:52;92078.53;;;10.39;100.00
7660;BME280;3872;47.902;8.162;2022-08-25T05:45:19;92070.63;;;10.39;100.00
7660;BME280;3872;47.902;8.162;2022-08-25T05:47:46;92067.31;;;10.34;100.00
7660;BME280;3872;47.902;8.162;2022-08-25T05:50:13;92069.47;;;10.45;100.00
7660;BME280;3872;47.902;8.162;2022-08-25T05:52:39;92068.59;;;10.69;100.00
7660;BME280;3872;47.902;8.162;2022-08-25T05:55:08;92067.34;;;10.80;100.00
7660;BME280;3872;47.902;8.162;2022-08-25T05:57:35;92059.16;;;10.95;100.00
7660;BME280;3872;47.902;8.162;2022-08-25T06:00:03;92059.38;;;11.26;100.00
7660;BME280;3872;47.902;8.162;2022-08-25T06:02:37;92043.28;;;11.41;100.00
7660;BME280;3872;47.902;8.162;2022-08-25T06:05:08;92048.84;;;11.53;100.00
7660;BME280;3872;47.902;8.162;2022-08-25T06:07:35;92051.16;;;11.68;100.00
7660;BME280;3872;47.902;8.162;2022-08-25T06:10:03;92052.22;;;11.95;100.00
7660;BME280;3872;47.902;8.162;2022-08-25T06:12:33;92053.44;;;12.11;100.00
7660;BME280;3872;47.902;8.162;2022-08-25T06:15:00;92052.25;;;12.39;100.00
7660;BME280;3872;47.902;8.162;2022-08-25T06:17:27;92051.00;;;12.59;100.00
7660;BME280;3872;47.902;8.162;2022-08-25T06:19:53;92050.69;;;12.83;100.00
7660;BME280;3872;47.902;8.162;2022-08-25T06:22:20;92045.91;;;12.93;100.00
7660;BME280;3872;47.902;8.162;2022-08-25T06:24:47;92041.59;;;13.28;100.00
7660;BME280;3872;47.902;8.162;2022-08-25T06:27:13;92044.69;;;13.30;100.00
7660;BME280;3872;47.902;8.162;2022-08-25T06:29:41;92040.16;;;13.62;100.00
7660;BME280;3872;47.902;8.162;2022-08-25T06:32:08;92038.19;;;13.85;100.00
7660;BME280;3872;47.902;8.162;2022-08-25T06:34:35;92036.00;;;14.04;100.00
7660;BME280;3872;47.902;8.162;2022-08-25T06:37:01;92033.53;;;14.33;100.00
7660;BME280;3872;47.902;8.162;2022-08-25T06:39:28;92029.31;;;14.58;100.00
7660;BME280;3872;47.902;8.162;2022-08-25T06:41:55;92029.31;;;14.75;100.00
7660;BME280;3872;47.902;8.162;2022-08-25T06:44:25;92024.03;;;15.13;100.00
7660;BME280;3872;47.902;8.162;2022-08-25T06:46:54;92024.94;;;15.26;100.00
7660;BME280;3872;47.902;8.162;2022-08-25T06:49:20;92019.56;;;15.43;100.00
7660;BME280;3872;47.902;8.162;2022-08-25T06:51:47;92025.06;;;15.76;100.00
7660;BME280;3872;47.902;8.162;2022-08-25T06:54:13;92030.28;;;15.85;100.00
7660;BME280;3872;47.902;8.162;2022-08-25T06:56:40;92025.94;;;16.10;100.00
7660;BME280;3872;47.902;8.162;2022-08-25T06:59:08;92024.38;;;16.29;100.00
7660;BME280;3872;47.902;8.162;2022-08-25T07:01:35;92011.13;;;16.41;100.00
7660;BME280;3872;47.902;8.162;2022-08-25T07:04:04;92012.94;;;16.70;100.00
7660;BME280;3872;47.902;8.162;2022-08-25T07:06:33;92018.88;;;16.88;100.00
7660;BME280;3872;47.902;8.162;2022-08-25T07:09:02;92026.09;;;17.00;100.00
7660;BME280;3872;47.902;8.162;2022-08-25T07:11:29;92021.56;;;17.12;100.00
7660;BME280;3872;47.902;8.162;2022-08-25T07:13:59;92008.88;;;17.42;100.00
7660;BME280;3872;47.902;8.162;2022-08-25T07:16:27;92008.47;;;17.65;100.00
7660;BME280;3872;47.902;8.162;2022-08-25T07:18:54;92009.59;;;17.76;100.00
7660;BME280;3872;47.902;8.162;2022-08-25T07:21:23;92012.47;;;17.83;100.00
7660;BME280;3872;47.902;8.162;2022-08-25T07:23:50;92022.63;;;18.05;100.00
7660;BME280;3872;47.902;8.162;2022-08-25T07:26:19;92018.63;;;18.23;100.00
7660;BME280;3872;47.902;8.162;2022-08-25T07:28:47;92020.88;;;17.85;100.00
7660;BME280;3872;47.902;8.162;2022-08-25T07:31:14;92019.88;;;18.54;100.00
7660;BME280;3872;47.902;8.162;2022-08-25T07:33:41;92018.78;;;18.83;100.00
7660;BME280;3872;47.902;8.162;2022-08-25T07:36:30;92019.16;;;19.12;100.00
7660;BME280;3872;47.902;8.162;2022-08-25T07:38:56;92024.47;;;19.25;100.00
7660;BME280;3872;47.902;8.162;2022-08-25T07:41:23;92021.97;;;19.47;100.00
7660;BME280;3872;47.902;8.162;2022-08-25T07:43:51;92018.19;;;19.64;100.00
7660;BME280;3872;47.902;8.162;2022-08-25T07:46:18;92009.63;;;19.90;100.00
7660;BME280;3872;47.902;8.162;2022-08-25T07:48:44;92012.53;;;19.81;100.00
7660;BME280;3872;47.902;8.162;2022-08-25T07:51:12;92014.94;;;20.21;100.00
7660;BME280;3872;47.902;8.162;2022-08-25T07:53:41;92024.56;;;19.75;100.00
7660;BME280;3872;47.902;8.162;2022-08-25T07:56:09;92023.28;;;20.36;100.00
7660;BME280;3872;47.902;8.162;2022-08-25T07:58:36;92031.13;;;20.63;100.00
7660;BME280;3872;47.902;8.162;2022-08-25T08:01:03;92025.28;;;20.58;100.00
7660;BME280;3872;47.902;8.162;2022-08-25T08:03:29;92026.53;;;20.45;100.00
7660;BME280;3872;47.902;8.162;2022-08-25T08:05:58;92030.69;;;20.61;100.00
7660;BME280;3872;47.902;8.162;2022-08-25T08:08:25;92016.97;;;21.01;100.00
7660;BME280;3872;47.902;8.162;2022-08-25T08:10:53;92017.84;;;21.28;100.00
7660;BME280;3872;47.902;8.162;2022-08-25T08:13:19;92016.25;;;21.24;100.00
7660;BME280;3872;47.902;8.162;2022-08-25T08:15:48;92013.06;;;21.37;100.00
7660;BME280;3872;47.902;8.162;2022-08-25T08:18:14;92015.47;;;21.69;100.00
7660;BME280;3872;47.902;8.162;2022-08-25T08:20:42;92010.75;;;22.08;100.00
7660;BME280;3872;47.902;8.162;2022-08-25T08:23:09;92009.25;;;22.10;100.00
7660;BME280;3872;47.902;8.162;2022-08-25T08:25:36;92010.06;;;21.88;100.00
7660;BME280;3872;47.902;8.162;2022-08-25T08:28:04;92014.88;;;22.28;100.00
7660;BME280;3872;47.902;8.162;2022-08-25T08:30:30;92014.41;;;21.73;100.00
7660;BME280;3872;47.902;8.162;2022-08-25T08:32:57;92019.09;;;22.03;100.00
7660;BME280;3872;47.902;8.162;2022-08-25T08:35:24;92018.03;;;22.63;100.00
7660;BME280;3872;47.902;8.162;2022-08-25T08:37:51;92013.22;;;23.10;100.00
7660;BME280;3872;47.902;8.162;2022-08-25T08:40:18;92009.09;;;23.16;100.00
7660;BME280;3872;47.902;8.162;2022-08-25T08:42:57;92005.09;;;23.02;100.00
7660;BME280;3872;47.902;8.162;2022-08-25T08:45:32;92008.81;;;22.91;100.00
7660;BME280;3872;47.902;8.162;2022-08-25T08:48:11;92011.72;;;22.79;100.00
7660;BME280;3872;47.902;8.162;2022-08-25T08:50:48;92005.06;;;23.36;100.00
7660;BME280;3872;47.902;8.162;2022-08-25T08:53:22;92000.00;;;23.68;100.00
7660;BME280;3872;47.902;8.162;2022-08-25T08:55:52;92003.16;;;23.77;100.00
7660;BME280;3872;47.902;8.162;2022-08-25T08:58:23;92004.47;;;23.94;100.00
7660;BME280;3872;47.902;8.162;2022-08-25T09:00:54;92010.38;;;23.66;100.00
7660;BME280;3872;47.902;8.162;2022-08-25T09:03:28;92001.72;;;23.90;100.00
7660;BME280;3872;47.902;8.162;2022-08-25T09:06:00;92005.88;;;24.32;100.00
7660;BME280;3872;47.902;8.162;2022-08-25T09:08:27;91999.88;;;24.59;100.00
7660;BME280;3872;47.902;8.162;2022-08-25T09:11:00;92003.91;;;24.90;83.52
7660;BME280;3872;47.902;8.162;2022-08-25T09:13:40;92004.31;;;24.96;81.35
7660;BME280;3872;47.902;8.162;2022-08-25T09:16:19;92000.34;;;24.76;80.19
7660;BME280;3872;47.902;8.162;2022-08-25T09:19:18;91999.03;;;25.28;78.16
7660;BME280;3872;47.902;8.162;2022-08-25T09:21:53;91994.44;;;25.43;77.36
7660;BME280;3872;47.902;8.162;2022-08-25T09:24:40;92003.25;;;25.25;76.43
7660;BME280;3872;47.902;8.162;2022-08-25T09:27:18;91993.25;;;25.29;75.38
7660;BME280;3872;47.902;8.162;2022-08-25T09:29:59;91988.31;;;25.56;75.37
7660;BME280;3872;47.902;8.162;2022-08-25T09:32:31;91991.81;;;25.74;77.25
7660;BME280;3872;47.902;8.162;2022-08-25T09:35:00;91988.72;;;25.72;74.07
7660;BME280;3872;47.902;8.162;2022-08-25T09:37:27;91984.50;;;25.71;76.14
7660;BME280;3872;47.902;8.162;2022-08-25T09:39:54;91985.91;;;25.23;74.79
7660;BME280;3872;47.902;8.162;2022-08-25T09:42:21;91980.19;;;25.46;74.25
7660;BME280;3872;47.902;8.162;2022-08-25T09:44:51;91980.63;;;25.80;73.83
7660;BME280;3872;47.902;8.162;2022-08-25T09:47:21;91980.63;;;25.87;70.39
7660;BME280;3872;47.902;8.162;2022-08-25T09:49:55;91972.94;;;26.35;67.43
7660;BME280;3872;47.902;8.162;2022-08-25T09:52:36;91975.25;;;26.26;67.14
7660;BME280;3872;47.902;8.162;2022-08-25T09:55:30;91967.44;;;26.60;64.05
7660;BME280;3872;47.902;8.162;2022-08-25T09:57:59;91972.13;;;26.38;66.36
7660;BME280;3872;47.902;8.162;2022-08-25T10:00:28;91964.03;;;26.45;70.39
7660;BME280;3872;47.902;8.162;2022-08-25T10:03:09;91974.75;;;26.66;68.26
7660;BME280;3872;47.902;8.162;2022-08-25T10:05:49;91970.41;;;27.01;67.04
7660;BME280;3872;47.902;8.162;2022-08-25T10:08:27;91966.63;;;27.57;65.02
7660;BME280;3872;47.902;8.162;2022-08-25T10:10:57;91971.56;;;27.03;65.90
7660;BME280;3872;47.902;8.162;2022-08-25T10:13:34;91971.50;;;27.17;66.40
7660;BME280;3872;47.902;8.162;2022-08-25T10:16:07;91977.63;;;27.25;63.87
7660;BME280;3872;47.902;8.162;2022-08-25T10:18:34;91962.59;;;27.83;61.45
7660;BME280;3872;47.902;8.162;2022-08-25T10:21:08;91958.91;;;28.07;56.98
7660;BME280;3872;47.902;8.162;2022-08-25T10:23:38;91952.16;;;28.70;54.68
7660;BME280;3872;47.902;8.162;2022-08-25T10:26:11;91952.16;;;28.33;56.88
7660;BME280;3872;47.902;8.162;2022-08-25T10:28:44;91958.47;;;28.57;56.63
7660;BME280;3872;47.902;8.162;2022-08-25T10:31:18;91951.88;;;29.26;52.77
7660;BME280;3872;47.902;8.162;2022-08-25T10:33:57;91953.00;;;28.60;53.57
7660;BME280;3872;47.902;8.162;2022-08-25T10:36:34;91953.69;;;27.86;55.21
7660;BME280;3872;47.902;8.162;2022-08-25T10:39:12;91947.41;;;28.78;50.67
7660;BME280;3872;47.902;8.162;2022-08-25T10:41:49;91938.50;;;29.95;46.57
7660;BME280;3872;47.902;8.162;2022-08-25T10:44:23;91943.63;;;29.86;45.47
7660;BME280;3872;47.902;8.162;2022-08-25T10:47:34;91939.56;;;30.88;43.45
7660;BME280;3872;47.902;8.162;2022-08-25T10:50:13;91925.09;;;30.74;44.67
7660;BME280;3872;47.902;8.162;2022-08-25T10:52:56;91932.69;;;29.93;44.78
7660;BME280;3872;47.902;8.162;2022-08-25T10:55:31;91925.97;;;30.25;42.99
7660;BME280;3872;47.902;8.162;2022-08-25T10:58:03;91922.97;;;30.62;42.47
7660;BME280;3872;47.902;8.162;2022-08-25T11:00:37;91928.28;;;30.26;41.46
7660;BME280;3872;47.902;8.162;2022-08-25T11:03:16;91923.78;;;29.12;43.67
7660;BME280;3872;47.902;8.162;2022-08-25T11:05:53;91919.38;;;29.22;43.47
7660;BME280;3872;47.902;8.162;2022-08-25T11:08:31;91907.53;;;30.36;42.51
7660;BME280;3872;47.902;8.162;2022-08-25T11:11:04;91912.97;;;31.35;39.80
7660;BME280;3872;47.902;8.162;2022-08-25T11:13:39;91909.41;;;30.82;40.85
7660;BME280;3872;47.902;8.162;2022-08-25T11:16:11;91907.78;;;31.24;39.70
7660;BME280;3872;47.902;8.162;2022-08-25T11:18:43;91908.16;;;30.67;40.84
7660;BME280;3872;47.902;8.162;2022-08-25T11:21:13;91906.13;;;30.51;39.74
7660;BME280;3872;47.902;8.162;2022-08-25T11:23:46;91908.44;;;30.72;39.50
7660;BME280;3872;47.902;8.162;2022-08-25T11:26:19;91901.56;;;31.24;39.66
7660;BME280;3872;47.902;8.162;2022-08-25T11:29:01;91900.91;;;30.80;41.71
7660;BME280;3872;47.902;8.162;2022-08-25T11:31:29;91899.78;;;32.02;38.62
7660;BME280;3872;47.902;8.162;2022-08-25T11:33:56;91899.94;;;32.27;37.22
7660;BME280;3872;47.902;8.162;2022-08-25T11:36:26;91901.28;;;31.54;37.55
7660;BME280;3872;47.902;8.162;2022-08-25T11:39:04;91889.63;;;32.92;34.03
7660;BME280;3872;47.902;8.162;2022-08-25T11:41:40;91892.88;;;32.75;34.30
7660;BME280;3872;47.902;8.162;2022-08-25T11:44:22;91894.84;;;32.58;34.23
7660;BME280;3872;47.902;8.162;2022-08-25T11:47:11;91890.78;;;31.72;35.03
7660;BME280;3872;47.902;8.162;2022-08-25T11:49:52;91901.53;;;29.25;37.34
7660;BME280;3872;47.902;8.162;2022-08-25T11:52:47;91889.75;;;32.60;33.29
7660;BME280;3872;47.902;8.162;2022-08-25T11:55:24;91884.91;;;30.23;35.77
7660;BME280;3872;47.902;8.162;2022-08-25T11:58:31;91888.66;;;29.05;37.70
7660;BME280;3872;47.902;8.162;2022-08-25T12:00:59;91898.88;;;28.60;39.18
7660;BME280;3872;47.902;8.162;2022-08-25T12:03:51;91897.84;;;28.10;41.10
7660;BME280;3872;47.902;8.162;2022-08-25T12:06:24;91902.28;;;27.86;41.76
7660;BME280;3872;47.902;8.162;2022-08-25T12:09:17;91893.78;;;27.91;41.98
7660;BME280;3872;47.902;8.162;2022-08-25T12:11:53;91897.94;;;27.99;42.34
7660;BME280;3872;47.902;8.162;2022-08-25T12:14:43;91900.53;;;27.65;42.85
7660;BME280;3872;47.902;8.162;2022-08-25T12:17:20;91892.84;;;28.46;41.75
7660;BME280;3872;47.902;8.162;2022-08-25T12:19:54;91892.28;;;28.61;41.84
7660;BME280;3872;47.902;8.162;2022-08-25T12:22:41;91887.50;;;28.76;42.76
7660;BME280;3872;47.902;8.162;2022-08-25T12:25:28;91891.00;;;29.84;39.75
7660;BME280;3872;47.902;8.162;2022-08-25T12:28:02;91885.50;;;30.11;36.99
7660;BME280;3872;47.902;8.162;2022-08-25T12:30:39;91883.88;;;29.93;37.43
7660;BME280;3872;47.902;8.162;2022-08-25T12:33:17;91879.09;;;30.01;38.51
7660;BME280;3872;47.902;8.162;2022-08-25T12:35:54;91879.84;;;28.98;41.57
7660;BME280;3872;47.902;8.162;2022-08-25T12:38:28;91883.94;;;28.83;40.25
7660;BME280;3872;47.902;8.162;2022-08-25T12:41:00;91882.56;;;28.98;39.48
7660;BME280;3872;47.902;8.162;2022-08-25T12:43:32;91882.28;;;29.19;40.75
7660;BME280;3872;47.902;8.162;2022-08-25T12:46:31;91879.22;;;29.44;39.02
7660;BME280;3872;47.902;8.162;2022-08-25T12:48:59;91875.50;;;30.27;37.39
7660;BME280;3872;47.902;8.162;2022-08-25T12:51:27;91876.59;;;28.46;39.27
7660;BME280;3872;47.902;8.162;2022-08-25T12:54:11;91872.75;;;28.43;39.37
7660;BME280;3872;47.902;8.162;2022-08-25T12:56:44;91885.34;;;28.60;40.10
7660;BME280;3872;47.902;8.162;2022-08-25T12:59:16;91877.94;;;29.75;37.95
7660;BME280;3872;47.902;8.162;2022-08-25T13:02:21;91874.56;;;31.49;36.43
7660;BME280;3872;47.902;8.162;2022-08-25T13:05:02;91874.97;;;29.43;39.42
7660;BME280;3872;47.902;8.162;2022-08-25T13:07:42;91871.88;;;29.91;37.86
7660;BME280;3872;47.902;8.162;2022-08-25T13:10:24;91862.50;;;32.31;33.00
7660;BME280;3872;47.902;8.162;2022-08-25T13:12:59;91881.34;;;29.79;37.18
7660;BME280;3872;47.902;8.162;2022-08-25T13:15:39;91873.09;;;31.64;35.06
7660;BME280;3872;47.902;8.162;2022-08-25T13:18:21;91871.88;;;32.88;32.64
7660;BME280;3872;47.902;8.162;2022-08-25T13:20:50;91868.72;;;32.32;34.70
7660;BME280;3872;47.902;8.162;2022-08-25T13:23:27;91867.91;;;32.18;34.61
7660;BME280;3872;47.902;8.162;2022-08-25T13:25:54;91855.94;;;32.99;33.88
7660;BME280;3872;47.902;8.162;2022-08-25T13:28:26;91856.50;;;33.07;34.61
7660;BME280;3872;47.902;8.162;2022-08-25T13:31:02;91860.94;;;31.69;35.44
7660;BME280;3872;47.902;8.162;2022-08-25T13:33:29;91858.78;;;31.44;36.38
7660;BME280;3872;47.902;8.162;2022-08-25T13:35:57;91856.84;;;31.77;36.27